createdAt,value
2022-09-22T00:00:45.496Z,8.11
2022-09-22T00:06:17.028Z,8.01
2022-09-22T00:11:48.867Z,7.94
2022-09-22T00:17:20.266Z,7.83
2022-09-22T00:22:51.725Z,7.81
2022-09-22T00:28:23.808Z,7.71
2022-09-22T00:33:55.127Z,7.66
2022-09-22T00:39:26.412Z,7.57
2022-09-22T00:44:57.862Z,7.56
2022-09-22T00:50:29.422Z,7.47
2022-09-22T00:56:00.720Z,7.43
2022-09-22T01:01:32.312Z,7.36
2022-09-22T01:07:03.462Z,7.31
2022-09-22T01:12:34.912Z,7.28
2022-09-22T01:18:06.681Z,7.21
2022-09-22T01:23:38.472Z,7.22
2022-09-22T01:29:10.184Z,7.22
2022-09-22T01:34:41.482Z,7.24
2022-09-22T01:40:13.100Z,7.22
2022-09-22T01:45:44.745Z,7.26
2022-09-22T01:51:16.309Z,7.24
2022-09-22T01:56:47.620Z,7.24
2022-09-22T02:02:18.847Z,7.18
2022-09-22T02:07:50.293Z,7.14
2022-09-22T02:13:22.098Z,7.04
2022-09-22T02:18:53.675Z,7.04
2022-09-22T02:24:25.007Z,6.95
2022-09-22T02:29:56.273Z,6.87
2022-09-22T02:35:27.548Z,6.86
2022-09-22T02:40:59.036Z,6.80
2022-09-22T02:46:31.291Z,6.75
2022-09-22T02:52:02.421Z,6.70
2022-09-22T02:57:33.992Z,6.65
2022-09-22T03:03:05.678Z,6.61
2022-09-22T03:08:36.840Z,6.61
2022-09-22T03:14:08.527Z,6.60
2022-09-22T03:19:40.230Z,6.57
2022-09-22T03:25:12.141Z,6.55
2022-09-22T03:36:13.712Z,6.49
2022-09-22T03:41:45.582Z,6.46
2022-09-22T03:47:17.772Z,6.45
2022-09-22T03:52:49.711Z,6.46
2022-09-22T03:58:21.563Z,6.43
2022-09-22T04:03:53.304Z,6.42
2022-09-22T04:09:25.253Z,6.43
2022-09-22T04:14:56.693Z,6.41
2022-09-22T04:20:28.009Z,6.39
2022-09-22T04:25:59.551Z,6.38
2022-09-22T04:31:30.997Z,6.36
2022-09-22T04:37:02.593Z,6.32
2022-09-22T04:42:34.496Z,6.32
2022-09-22T04:48:06.352Z,6.28
2022-09-22T04:53:37.711Z,6.25
2022-09-22T04:59:08.945Z,6.25
2022-09-22T05:04:40.313Z,6.25
2022-09-22T05:10:12.383Z,6.24
2022-09-22T05:15:43.858Z,6.25
2022-09-22T05:21:15.573Z,6.25
2022-09-22T05:26:46.879Z,6.35
2022-09-22T05:32:18.585Z,6.46
2022-09-22T05:37:50.081Z,7.83
2022-09-22T05:43:21.659Z,8.36
2022-09-22T05:48:53.656Z,8.21
2022-09-22T05:54:25.095Z,8.11
2022-09-22T05:59:57.021Z,8.19
2022-09-22T06:05:28.602Z,10.20
2022-09-22T06:11:00.252Z,11.29
2022-09-22T06:16:31.602Z,12.95
2022-09-22T06:22:03.014Z,13.82
2022-09-22T06:27:34.824Z,15.00
2022-09-22T06:33:06.448Z,15.41
2022-09-22T06:38:37.805Z,16.80
2022-09-22T06:49:38.926Z,18.80
2022-09-22T06:55:10.303Z,19.35
2022-09-22T07:00:41.879Z,20.28
2022-09-22T07:06:17.990Z,20.71
2022-09-22T07:11:44.690Z,21.30
2022-09-22T07:17:15.960Z,21.54
2022-09-22T07:22:47.327Z,22.44
2022-09-22T07:28:18.592Z,22.88
2022-09-22T07:33:49.953Z,23.45
2022-09-22T07:39:21.319Z,23.52
2022-09-22T07:44:53.263Z,23.19
2022-09-22T07:50:25.266Z,23.22
2022-09-22T07:55:56.555Z,23.54
2022-09-22T08:01:27.909Z,23.71
2022-09-22T08:06:59.499Z,23.54
2022-09-22T08:12:30.764Z,23.37
2022-09-22T08:18:02.142Z,22.74
2022-09-22T08:23:33.824Z,22.62
2022-09-22T08:29:05.170Z,22.33
2022-09-22T08:34:36.543Z,22.05
2022-09-22T08:40:08.487Z,21.52
2022-09-22T08:45:39.987Z,21.36
2022-09-22T08:56:41.158Z,21.21
2022-09-22T09:02:12.675Z,20.71
2022-09-22T09:18:43.150Z,18.51
2022-09-22T09:29:46.687Z,17.40
2022-09-22T09:35:18.255Z,16.99
2022-09-22T09:40:49.489Z,16.71
2022-09-22T09:46:21.012Z,16.41
2022-09-22T09:51:52.706Z,16.33
2022-09-22T09:57:31.107Z,16.03
2022-09-22T10:02:55.808Z,16.02
2022-09-22T10:08:27.155Z,16.06
2022-09-22T10:13:58.561Z,16.23
2022-09-22T10:24:59.495Z,16.34
2022-09-22T10:30:31.139Z,16.41
2022-09-22T10:36:05.453Z,16.64
2022-09-22T10:41:34.710Z,16.74
2022-09-22T10:47:06.022Z,16.80
2022-09-22T10:52:37.781Z,16.89
2022-09-22T10:58:09.585Z,16.93
2022-09-22T11:03:41.332Z,16.98
2022-09-22T11:09:13.283Z,16.99
2022-09-22T11:14:44.960Z,17.01
2022-09-22T11:20:17.316Z,17.13
2022-09-22T11:25:49.036Z,17.19
2022-09-22T11:31:20.771Z,17.42
2022-09-22T11:36:52.334Z,17.52
2022-09-22T11:42:23.980Z,17.67
2022-09-22T11:47:55.737Z,17.68
2022-09-22T11:53:27.781Z,17.72
2022-09-22T11:58:59.358Z,17.68
2022-09-22T12:04:31.023Z,17.47
2022-09-22T12:06:43.236Z,0.00
2022-09-22T12:12:14.279Z,17.54
2022-09-22T12:17:45.782Z,17.60
2022-09-22T12:23:17.015Z,17.62
2022-09-22T12:28:48.309Z,17.74
2022-09-22T12:34:19.739Z,18.00
2022-09-22T12:39:51.141Z,17.96
2022-09-22T12:45:22.422Z,17.95
2022-09-22T12:50:54.085Z,17.93
2022-09-22T12:56:25.357Z,17.92
2022-09-22T13:01:56.763Z,17.86
2022-09-22T13:07:28.254Z,17.90
2022-09-22T13:12:59.897Z,17.89
2022-09-22T13:18:31.672Z,17.85
2022-09-22T13:24:02.855Z,17.88
2022-09-22T13:29:34.200Z,17.88
2022-09-22T13:35:05.579Z,17.93
2022-09-22T13:40:37.093Z,17.95
2022-09-22T13:46:08.352Z,17.90
2022-09-22T13:51:39.733Z,17.99
2022-09-22T13:57:11.399Z,17.96
2022-09-22T14:02:42.959Z,17.86
2022-09-22T14:08:17.204Z,17.88
2022-09-22T14:13:46.394Z,17.89
2022-09-22T14:19:18.045Z,17.86
2022-09-22T14:24:49.508Z,17.92
2022-09-22T14:30:21.487Z,17.92
2022-09-22T14:35:52.712Z,17.90
2022-09-22T14:46:53.530Z,17.81
2022-09-22T14:54:46.314Z,17.72
2022-09-22T15:00:17.574Z,17.69
2022-09-22T15:05:48.722Z,17.72
2022-09-22T15:11:20.018Z,17.68
2022-09-22T15:16:51.308Z,17.65
2022-09-22T15:22:22.595Z,17.67
2022-09-22T15:27:54.052Z,17.62
2022-09-22T15:33:25.751Z,17.61
2022-09-22T15:38:57.495Z,17.51
2022-09-22T15:44:29.062Z,17.48
2022-09-22T15:50:00.497Z,17.48
2022-09-22T15:55:32.198Z,17.42
2022-09-22T16:01:04.377Z,17.40
2022-09-22T16:06:35.887Z,17.34
2022-09-22T16:12:07.915Z,17.29
2022-09-22T16:17:39.480Z,17.17
2022-09-22T16:23:11.505Z,17.12
2022-09-22T16:28:43.003Z,16.99
2022-09-22T16:34:14.203Z,16.89
2022-09-22T16:39:45.483Z,16.75
2022-09-22T16:45:16.923Z,16.67
2022-09-22T16:50:48.260Z,16.47
2022-09-22T16:56:20.031Z,16.41
2022-09-22T17:01:51.815Z,16.20
2022-09-22T17:07:23.148Z,16.10
2022-09-22T17:12:54.573Z,15.82
2022-09-22T17:18:26.151Z,15.71
2022-09-22T17:23:58.292Z,15.43
2022-09-22T17:29:29.929Z,15.30
2022-09-22T17:35:01.851Z,15.03
2022-09-22T17:40:33.547Z,14.91
2022-09-22T17:46:05.502Z,14.70
2022-09-22T17:51:37.085Z,14.57
2022-09-22T17:57:08.833Z,14.38
2022-09-22T18:02:40.454Z,14.27
2022-09-22T18:08:12.216Z,14.08
2022-09-22T18:13:43.877Z,13.93
2022-09-22T18:19:15.580Z,13.73
2022-09-22T18:24:46.779Z,13.64
2022-09-22T18:30:18.174Z,13.50
2022-09-22T18:35:49.519Z,13.38
2022-09-22T18:41:21.364Z,13.25
2022-09-22T18:46:53.105Z,13.13
2022-09-22T18:52:24.602Z,12.96
2022-09-22T18:57:56.170Z,12.92
2022-09-22T19:03:27.910Z,12.75
2022-09-22T19:08:59.401Z,12.71
2022-09-22T19:14:30.833Z,12.56
2022-09-22T19:20:02.250Z,12.48
2022-09-22T19:25:34.144Z,12.39
2022-09-22T19:31:05.822Z,12.16
2022-09-22T19:36:37.445Z,12.03
2022-09-22T19:42:09.220Z,11.82
2022-09-22T19:47:41.059Z,11.73
2022-09-22T19:53:12.593Z,11.54
2022-09-22T20:04:14.037Z,11.33
2022-09-22T20:09:45.699Z,11.25
2022-09-22T20:15:17.422Z,11.15
2022-09-22T20:20:51.070Z,11.06
2022-09-22T20:26:21.438Z,10.94
2022-09-22T20:31:53.435Z,10.90
2022-09-22T20:42:56.768Z,10.73
2022-09-22T20:54:00.120Z,10.51
2022-09-22T20:59:31.947Z,10.37
2022-09-22T21:05:04.170Z,10.29
2022-09-22T21:10:36.119Z,10.13
2022-09-22T21:16:07.764Z,10.06
2022-09-22T21:21:39.332Z,9.90
2022-09-22T21:27:10.768Z,9.81
2022-09-22T21:32:42.500Z,9.65
2022-09-22T21:38:14.250Z,9.60
2022-09-22T21:49:15.155Z,9.47
2022-09-22T21:54:47.005Z,9.44
2022-09-22T22:00:31.966Z,9.39
2022-09-22T22:05:50.415Z,9.36
2022-09-22T22:11:22.195Z,9.23
2022-09-22T22:16:53.935Z,9.21
2022-09-22T22:27:54.809Z,9.15
2022-09-22T22:33:26.703Z,9.07
2022-09-22T22:38:58.202Z,9.05
2022-09-22T22:44:30.063Z,8.99
2022-09-22T22:50:01.618Z,8.98
2022-09-22T22:55:33.588Z,8.90
2022-09-22T23:01:05.131Z,8.88
2022-09-22T23:06:36.786Z,8.81
2022-09-22T23:12:08.312Z,8.72
2022-09-22T23:17:39.968Z,8.60
2022-09-22T23:23:11.444Z,8.53
2022-09-22T23:28:43.138Z,8.40
2022-09-22T23:34:14.979Z,8.36
2022-09-22T23:39:46.798Z,8.29
2022-09-22T23:45:18.430Z,8.24
2022-09-22T23:50:50.320Z,8.14
2022-09-22T23:56:22.303Z,8.09
